Time;durP1;ratioP1;P1;durP2;ratioP2;P2;SDS_P1;SDS_P2;PMS_P1;PMS_P2;Temp;Humidity;BMP_temperature;BMP_pressure;BME280_temperature;BME280_humidity;BME280_pressure;Samples;Min_cycle;Max_cycle;Signal;HPM_P1;HPM_P2
2022/02/09 00:10:43;0.00;0.00;0.62;0.00;0.00;0.62;2.83;2.50;;;22.00;29.10;;;;;;2245424;61;20374;-63
2022/02/09 00:37:58;0.00;0.00;0.62;0.00;0.00;0.62;4.80;3.97;;;21.60;28.40;;;;;;2249091;61;20401;-63
2022/02/09 00:59:04;0.00;0.00;0.62;0.00;0.00;0.62;4.30;3.90;;;21.10;28.10;;;;;;2244822;61;20393;-62
2022/02/09 01:56:40;0.00;0.00;0.62;0.00;0.00;0.62;5.57;4.60;;;20.60;28.60;;;;;;2249190;61;20488;-64
2022/02/09 01:59:25;0.00;0.00;0.62;0.00;0.00;0.62;5.53;4.90;;;20.50;28.60;;;;;;2249150;61;20732;-64
2022/02/09 02:02:10;0.00;0.00;0.62;0.00;0.00;0.62;4.93;4.30;;;20.50;28.60;;;;;;2249729;61;20416;-63
2022/02/09 02:04:55;0.00;0.00;0.62;0.00;0.00;0.62;6.93;5.27;;;20.50;28.60;;;;;;2248739;61;20643;-63
2022/02/09 02:07:52;0.00;0.00;0.62;0.00;0.00;0.62;6.90;5.80;;;20.50;29.10;;;;;;2249309;61;20391;-63
2022/02/09 02:16:40;0.00;0.00;0.62;0.00;0.00;0.62;5.60;4.90;;;20.40;28.60;;;;;;2249781;61;20420;-64
2022/02/09 02:22:43;0.00;0.00;0.62;0.00;0.00;0.62;6.53;5.87;;;20.40;28.60;;;;;;2249991;61;20364;-61
2022/02/09 02:25:56;0.00;0.00;0.62;0.00;0.00;0.62;4.90;4.40;;;20.40;28.60;;;;;;2250151;61;20372;-63
2022/02/09 02:29:08;0.00;0.00;0.62;0.00;0.00;0.62;4.57;4.17;;;20.40;28.60;;;;;;2249718;61;20579;-63
2022/02/09 02:44:54;0.00;0.00;0.62;0.00;0.00;0.62;5.87;4.60;;;20.30;28.70;;;;;;2249653;61;20603;-63
2022/02/09 02:47:30;0.00;0.00;0.62;0.00;0.00;0.62;4.70;4.20;;;20.20;28.60;;;;;;2250048;61;20400;-64
2022/02/09 03:11:46;0.00;0.00;0.62;0.00;0.00;0.62;4.17;3.60;;;20.20;28.70;;;;;;2249379;61;20757;-64
2022/02/09 03:17:39;0.00;0.00;0.62;0.00;0.00;0.62;3.67;3.37;;;20.10;28.70;;;;;;2246185;61;20433;-63
2022/02/09 03:20:31;0.00;0.00;0.62;0.00;0.00;0.62;3.33;2.70;;;20.10;28.70;;;;;;2245373;61;20370;-63
2022/02/09 03:26:51;0.00;0.00;0.62;0.00;0.00;0.62;4.73;3.30;;;20.10;28.70;;;;;;2245059;61;20417;-62
2022/02/09 03:53:25;0.00;0.00;0.62;0.00;0.00;0.62;3.43;2.73;;;20.00;28.70;;;;;;2246072;61;20389;-63
2022/02/09 03:59:15;0.00;0.00;0.62;0.00;0.00;0.62;3.27;2.97;;;19.90;28.60;;;;;;2245690;61;20369;-63
2022/02/09 04:02:01;0.00;0.00;0.62;0.00;0.00;0.62;3.47;2.67;;;19.90;28.70;;;;;;2246016;61;20497;-64
2022/02/09 04:04:51;0.00;0.00;0.62;0.00;0.00;0.62;3.00;2.70;;;19.90;28.70;;;;;;2245078;61;20396;-63
2022/02/09 04:07:36;0.00;0.00;0.62;0.00;0.00;0.62;2.93;2.30;;;19.90;28.70;;;;;;2245738;61;20401;-63
2022/02/09 04:10:25;0.00;0.00;0.62;0.00;0.00;0.62;2.77;2.40;;;20.00;28.80;;;;;;2245271;61;20394;-63
2022/02/09 04:16:32;0.00;0.00;0.62;0.00;0.00;0.62;4.07;3.03;;;19.90;28.70;;;;;;2248745;61;20451;-64
2022/02/09 04:57:49;0.00;0.00;0.62;0.00;0.00;0.62;2.90;2.50;;;19.80;28.60;;;;;;2249518;61;20420;-63
2022/02/09 05:00:57;0.00;0.00;0.62;0.00;0.00;0.62;2.73;2.50;;;19.80;28.60;;;;;;2249848;61;20671;-63
2022/02/09 05:27:36;0.00;0.00;0.62;0.00;0.00;0.62;3.93;2.20;;;19.70;28.60;;;;;;2249400;61;20425;-62
2022/02/09 05:30:21;0.00;0.00;0.62;0.00;0.00;0.62;2.37;2.10;;;19.70;28.70;;;;;;2249899;61;20368;-61
2022/02/09 05:33:06;0.00;0.00;0.62;0.00;0.00;0.62;2.53;2.20;;;19.70;28.60;;;;;;2248639;61;20857;-60
2022/02/09 05:35:52;0.00;0.00;0.62;0.00;0.00;0.62;3.03;2.50;;;19.70;28.60;;;;;;2249392;61;20360;-63
2022/02/09 05:38:37;0.00;0.00;0.62;0.00;0.00;0.62;2.80;2.17;;;19.70;28.60;;;;;;2249390;61;20593;-63
2022/02/09 05:41:23;0.00;0.00;0.62;0.00;0.00;0.62;3.50;1.90;;;19.70;28.60;;;;;;2249150;61;20365;-63
2022/02/09 05:44:08;0.00;0.00;0.62;0.00;0.00;0.62;4.53;2.13;;;19.70;28.60;;;;;;2249516;61;20392;-63
2022/02/09 05:49:53;0.00;0.00;0.62;0.00;0.00;0.62;3.07;2.00;;;19.70;28.60;;;;;;2249390;61;20445;-63
2022/02/09 05:55:51;0.00;0.00;0.62;0.00;0.00;0.62;3.47;2.00;;;19.70;28.60;;;;;;2248633;61;20358;-63
2022/02/09 05:58:46;0.00;0.00;0.62;0.00;0.00;0.62;2.93;2.17;;;19.70;28.60;;;;;;2249346;61;20365;-63
2022/02/09 06:01:31;0.00;0.00;0.62;0.00;0.00;0.62;2.77;2.13;;;19.70;28.60;;;;;;2248948;61;20437;-63
2022/02/09 06:04:16;0.00;0.00;0.62;0.00;0.00;0.62;2.00;1.70;;;19.70;28.60;;;;;;2249439;61;20396;-63
2022/02/09 06:07:00;0.00;0.00;0.62;0.00;0.00;0.62;3.07;1.53;;;19.70;28.60;;;;;;2249541;61;20399;-63
2022/02/09 06:09:45;0.00;0.00;0.62;0.00;0.00;0.62;3.00;1.27;;;19.70;28.60;;;;;;2248499;61;20404;-63
2022/02/09 06:12:43;0.00;0.00;0.62;0.00;0.00;0.62;3.20;1.20;;;19.80;28.70;;;;;;2249271;61;20569;-64
2022/02/09 06:15:48;0.00;0.00;0.62;0.00;0.00;0.62;2.00;1.53;;;19.80;28.70;;;;;;2249509;61;20768;-64
2022/02/09 06:21:37;0.00;0.00;0.62;0.00;0.00;0.62;1.80;1.33;;;19.90;28.80;;;;;;2249670;61;20359;-63
2022/02/09 06:24:22;0.00;0.00;0.62;0.00;0.00;0.62;3.90;1.50;;;19.90;28.90;;;;;;2248655;61;20357;-63
2022/02/09 06:27:06;0.00;0.00;0.62;0.00;0.00;0.62;2.43;1.20;;;19.90;28.70;;;;;;2249261;61;20388;-63
2022/02/09 06:29:52;0.00;0.00;0.62;0.00;0.00;0.62;2.10;1.13;;;19.90;28.80;;;;;;2249644;61;20388;-63
2022/02/09 06:32:37;0.00;0.00;0.62;0.00;0.00;0.62;2.10;1.77;;;20.00;28.80;;;;;;2248843;61;20384;-63
2022/02/09 06:35:21;0.00;0.00;0.62;0.00;0.00;0.62;2.20;1.20;;;20.00;28.80;;;;;;2249247;61;20360;-64
2022/02/09 06:38:06;0.00;0.00;0.62;0.00;0.00;0.62;1.83;1.23;;;20.00;28.80;;;;;;2249353;61;20635;-63
2022/02/09 06:40:56;0.00;0.00;0.62;0.00;0.00;0.62;1.73;1.40;;;20.00;28.80;;;;;;2248908;61;20762;-63
2022/02/09 06:43:40;0.00;0.00;0.62;0.00;0.00;0.62;2.37;1.10;;;20.10;28.80;;;;;;2249656;61;20360;-63
2022/02/09 06:46:31;0.00;0.00;0.62;0.00;0.00;0.62;1.80;1.33;;;20.10;28.80;;;;;;2248523;61;20764;-63
2022/02/09 06:49:17;0.00;0.00;0.62;0.00;0.00;0.62;1.77;1.17;;;20.10;28.80;;;;;;2249096;61;20373;-64
2022/02/09 06:52:02;0.00;0.00;0.62;0.00;0.00;0.62;1.70;0.90;;;20.20;28.80;;;;;;2249582;61;20416;-63
2022/02/09 06:55:07;0.00;0.00;0.62;0.00;0.00;0.62;1.60;1.10;;;20.20;28.80;;;;;;2248443;61;20481;-62
2022/02/09 06:58:02;0.00;0.00;0.62;0.00;0.00;0.62;2.90;1.10;;;20.20;28.80;;;;;;2249945;61;20396;-64
2022/02/09 07:00:46;0.00;0.00;0.62;0.00;0.00;0.62;1.67;1.00;;;20.30;28.90;;;;;;2249388;61;20367;-63
2022/02/09 07:03:32;0.00;0.00;0.62;0.00;0.00;0.62;1.67;0.93;;;20.20;28.80;;;;;;2249915;61;20360;-64
2022/02/09 07:06:17;0.00;0.00;0.62;0.00;0.00;0.62;1.80;1.07;;;20.30;28.80;;;;;;2250189;61;20404;-63
2022/02/09 07:09:01;0.00;0.00;0.62;0.00;0.00;0.62;2.20;1.00;;;20.30;28.80;;;;;;2249053;61;20388;-63
2022/02/09 07:11:46;0.00;0.00;0.62;0.00;0.00;0.62;1.50;1.00;;;20.30;28.70;;;;;;2249939;61;20388;-63
2022/02/09 07:14:30;0.00;0.00;0.62;0.00;0.00;0.62;2.87;1.03;;;20.40;28.80;;;;;;2250035;61;20433;-64
2022/02/09 07:17:15;0.00;0.00;0.62;0.00;0.00;0.62;1.60;0.93;;;20.40;28.80;;;;;;2249537;61;20380;-63
2022/02/09 07:20:14;0.00;0.00;0.62;0.00;0.00;0.62;1.40;0.90;;;20.40;28.80;;;;;;2250113;61;20392;-64
2022/02/09 07:23:01;0.00;0.00;0.62;0.00;0.00;0.62;1.30;0.80;;;20.40;28.70;;;;;;2249461;61;20774;-63
2022/02/09 07:26:01;0.00;0.00;0.62;0.00;0.00;0.62;1.50;0.83;;;20.40;28.70;;;;;;2249903;61;20415;-63
2022/02/09 07:28:46;0.00;0.00;0.62;0.00;0.00;0.62;1.50;1.00;;;20.40;28.70;;;;;;2249989;61;20384;-63
2022/02/09 07:31:31;0.00;0.00;0.62;0.00;0.00;0.62;1.50;0.90;;;20.50;28.80;;;;;;2249194;61;20591;-64
2022/02/09 07:34:16;0.00;0.00;0.62;0.00;0.00;0.62;1.40;0.83;;;20.50;28.70;;;;;;2249834;61;20601;-62
2022/02/09 07:37:02;0.00;0.00;0.62;0.00;0.00;0.62;1.47;1.00;;;20.50;28.70;;;;;;2249732;61;20387;-62
2022/02/09 07:39:47;0.00;0.00;0.62;0.00;0.00;0.62;1.50;1.00;;;20.60;28.80;;;;;;2249572;61;20365;-63
2022/02/09 07:42:33;0.00;0.00;0.62;0.00;0.00;0.62;1.53;0.90;;;20.50;28.70;;;;;;2250175;61;20365;-62
2022/02/09 07:54:11;0.00;0.00;0.62;0.00;0.00;0.62;1.40;0.90;;;20.60;28.70;;;;;;2249491;61;20360;-63
2022/02/09 07:56:56;0.00;0.00;0.62;0.00;0.00;0.62;1.40;0.90;;;20.60;28.70;;;;;;2249693;61;20436;-64
2022/02/09 07:59:40;0.00;0.00;0.62;0.00;0.00;0.62;1.40;0.90;;;20.60;28.70;;;;;;2249509;61;20385;-64
2022/02/09 08:02:25;0.00;0.00;0.62;0.00;0.00;0.62;1.60;0.87;;;20.70;29.30;;;;;;2249470;61;20728;-64
2022/02/09 08:05:09;0.00;0.00;0.62;0.00;0.00;0.62;1.60;1.00;;;20.70;28.70;;;;;;2249938;61;20364;-62
2022/02/09 08:07:54;0.00;0.00;0.62;0.00;0.00;0.62;1.40;0.80;;;20.70;28.70;;;;;;2248813;61;20377;-63
2022/02/09 08:10:48;0.00;0.00;0.62;0.00;0.00;0.62;1.80;0.90;;;20.70;28.70;;;;;;2249633;61;20397;-64
2022/02/09 08:26:41;0.00;0.00;0.62;0.00;0.00;0.62;2.33;1.00;;;20.80;28.70;;;;;;2249506;61;20623;-64
2022/02/09 08:29:25;0.00;0.00;0.62;0.00;0.00;0.62;1.30;0.80;;;20.80;28.70;;;;;;2249502;61;20368;-64
2022/02/09 08:34:55;0.00;0.00;0.62;0.00;0.00;0.62;1.63;0.90;;;20.80;28.70;;;;;;2249750;61;20392;-64
2022/02/09 08:37:40;0.00;0.00;0.62;0.00;0.00;0.62;1.27;0.67;;;20.80;28.60;;;;;;2248904;61;20380;-63
2022/02/09 08:40:25;0.00;0.00;0.62;0.00;0.00;0.62;1.30;0.80;;;20.80;28.60;;;;;;2249589;61;20368;-63
2022/02/09 08:43:11;0.00;0.00;0.62;0.00;0.00;0.62;1.37;0.80;;;20.80;28.60;;;;;;2249931;61;20361;-63
2022/02/09 08:45:56;0.00;0.00;0.62;0.00;0.00;0.62;1.40;0.80;;;20.90;28.70;;;;;;2248994;61;20752;-62
2022/02/09 08:48:42;0.00;0.00;0.62;0.00;0.00;0.62;1.47;0.90;;;20.90;28.70;;;;;;2249549;61;20787;-62
2022/02/09 08:51:27;0.00;0.00;0.62;0.00;0.00;0.62;1.30;0.80;;;20.90;28.60;;;;;;2249439;61;20364;-64
2022/02/09 08:54:12;0.00;0.00;0.62;0.00;0.00;0.62;1.50;0.73;;;20.90;28.60;;;;;;2249184;61;20649;-64
2022/02/09 08:56:58;0.00;0.00;0.62;0.00;0.00;0.62;2.23;0.80;;;20.90;28.60;;;;;;2249907;61;20416;-63
2022/02/09 08:59:44;0.00;0.00;0.62;0.00;0.00;0.62;1.30;0.70;;;20.90;28.60;;;;;;2248886;61;20360;-64
2022/02/09 09:02:34;0.00;0.00;0.62;0.00;0.00;0.62;1.40;1.00;;;20.90;28.60;;;;;;2249610;61;20432;-64
2022/02/09 09:05:25;0.00;0.00;0.62;0.00;0.00;0.62;1.20;0.80;;;20.90;28.50;;;;;;2249822;61;20380;-64
2022/02/09 09:08:26;0.00;0.00;0.62;0.00;0.00;0.62;1.30;0.80;;;21.00;28.60;;;;;;2249133;61;20353;-64
2022/02/09 09:11:20;0.00;0.00;0.62;0.00;0.00;0.62;1.20;0.60;;;21.00;28.60;;;;;;2249585;61;20386;-64
2022/02/09 10:31:09;0.00;0.00;0.62;0.00;0.00;0.62;1.20;0.70;;;21.20;28.60;;;;;;2249624;61;20728;-64
2022/02/09 10:34:00;0.00;0.00;0.62;0.00;0.00;0.62;1.20;0.70;;;21.20;28.60;;;;;;2250231;61;20764;-63
2022/02/09 10:36:49;0.00;0.00;0.62;0.00;0.00;0.62;1.30;0.60;;;21.20;28.60;;;;;;2249187;61;20392;-63
2022/02/09 10:40:01;0.00;0.00;0.62;0.00;0.00;0.62;1.20;0.60;;;21.20;28.60;;;;;;2249974;61;20353;-64
2022/02/09 10:42:49;0.00;0.00;0.62;0.00;0.00;0.62;1.50;0.70;;;21.20;28.60;;;;;;2249495;61;20393;-64
2022/02/09 10:45:47;0.00;0.00;0.62;0.00;0.00;0.62;1.20;0.70;;;21.20;28.60;;;;;;2249835;61;20728;-64
2022/02/09 10:48:37;0.00;0.00;0.62;0.00;0.00;0.62;1.47;0.97;;;21.20;28.50;;;;;;2250237;61;20364;-64
2022/02/09 10:54:17;0.00;0.00;0.62;0.00;0.00;0.62;1.40;0.90;;;21.20;28.50;;;;;;2250064;61;20365;-64
2022/02/09 10:57:04;0.00;0.00;0.62;0.00;0.00;0.62;1.40;0.80;;;21.20;28.50;;;;;;2249789;61;20604;-63
2022/02/09 10:59:49;0.00;0.00;0.62;0.00;0.00;0.62;2.03;0.80;;;21.20;28.50;;;;;;2249670;61;20616;-63
2022/02/09 11:02:33;0.00;0.00;0.62;0.00;0.00;0.62;1.20;0.70;;;21.30;28.50;;;;;;2250374;61;20431;-63
2022/02/09 11:05:20;0.00;0.00;0.62;0.00;0.00;0.62;1.20;0.70;;;21.30;28.50;;;;;;2249101;61;20388;-62
2022/02/09 11:08:08;0.00;0.00;0.62;0.00;0.00;0.62;1.20;0.80;;;21.30;28.50;;;;;;2249825;61;20401;-63
2022/02/09 11:10:54;0.00;0.00;0.62;0.00;0.00;0.62;1.40;0.90;;;21.30;28.50;;;;;;2250338;61;20497;-64
2022/02/09 11:13:40;0.00;0.00;0.62;0.00;0.00;0.62;1.27;0.70;;;21.30;28.50;;;;;;2249237;61;20707;-62
2022/02/09 11:16:26;0.00;0.00;0.62;0.00;0.00;0.62;1.20;0.70;;;21.30;28.50;;;;;;2249926;61;20607;-63
2022/02/09 11:19:11;0.00;0.00;0.62;0.00;0.00;0.62;1.40;0.70;;;21.30;28.50;;;;;;2250003;61;20385;-64
2022/02/09 11:22:05;0.00;0.00;0.62;0.00;0.00;0.62;1.27;0.77;;;21.30;28.50;;;;;;2250350;61;20595;-63
2022/02/09 11:25:12;0.00;0.00;0.62;0.00;0.00;0.62;1.27;0.70;;;21.30;28.50;;;;;;2250490;61;20855;-63
2022/02/09 11:28:20;0.00;0.00;0.62;0.00;0.00;0.62;1.30;0.73;;;21.30;28.50;;;;;;2249308;61;20416;-64
2022/02/09 11:31:14;0.00;0.00;0.62;0.00;0.00;0.62;1.30;0.70;;;21.30;28.50;;;;;;2249941;61;20360;-64
2022/02/09 11:34:06;0.00;0.00;0.62;0.00;0.00;0.62;1.47;0.70;;;21.30;28.50;;;;;;2249550;61;20388;-64
2022/02/09 11:37:02;0.00;0.00;0.62;0.00;0.00;0.62;1.20;0.60;;;21.30;28.50;;;;;;2249459;61;20377;-64
2022/02/09 11:39:50;0.00;0.00;0.62;0.00;0.00;0.62;1.20;0.70;;;21.30;28.50;;;;;;2250050;61;20369;-65
2022/02/09 11:42:44;0.00;0.00;0.62;0.00;0.00;0.62;1.57;0.70;;;21.30;28.50;;;;;;2248937;61;20413;-64
2022/02/09 11:46:15;0.00;0.00;0.62;0.00;0.00;0.62;1.63;0.70;;;21.30;28.50;;;;;;2249688;61;20369;-64
2022/02/09 11:54:44;0.00;0.00;0.62;0.00;0.00;0.62;1.20;0.60;;;21.40;28.60;;;;;;2247836;61;20812;-63
2022/02/09 12:11:20;0.00;0.00;0.62;0.00;0.00;0.62;1.20;0.70;;;21.40;28.50;;;;;;2248201;61;20617;-63
2022/02/09 12:19:53;0.00;0.00;0.62;0.00;0.00;0.62;1.23;0.70;;;21.40;28.50;;;;;;2249093;61;20396;-63
2022/02/09 12:22:44;0.00;0.00;0.62;0.00;0.00;0.62;1.30;0.70;;;21.50;28.50;;;;;;2249785;61;20352;-63
2022/02/09 12:25:39;0.00;0.00;0.62;0.00;0.00;0.62;1.20;0.70;;;21.50;28.50;;;;;;2249741;61;20361;-64
2022/02/09 12:28:26;0.00;0.00;0.62;0.00;0.00;0.62;1.20;0.70;;;21.50;28.50;;;;;;2249302;61;20360;-64
2022/02/09 12:31:14;0.00;0.00;0.62;0.00;0.00;0.62;1.10;0.60;;;21.50;28.50;;;;;;2250003;61;20601;-62
2022/02/09 12:34:01;0.00;0.00;0.62;0.00;0.00;0.62;1.20;0.63;;;21.50;28.50;;;;;;2248949;61;20521;-64
2022/02/09 12:36:47;0.00;0.00;0.62;0.00;0.00;0.62;1.30;0.60;;;21.50;28.50;;;;;;2249443;61;20752;-63
2022/02/09 12:39:45;0.00;0.00;0.62;0.00;0.00;0.62;1.10;0.70;;;21.50;28.50;;;;;;2249791;61;20364;-62
2022/02/09 12:42:32;0.00;0.00;0.62;0.00;0.00;0.62;1.23;0.70;;;21.50;28.50;;;;;;2249021;61;20356;-62
2022/02/09 12:45:19;0.00;0.00;0.62;0.00;0.00;0.62;1.40;0.80;;;21.50;28.40;;;;;;2249486;61;20439;-62
2022/02/09 12:48:07;0.00;0.00;0.62;0.00;0.00;0.62;1.20;0.70;;;21.60;28.50;;;;;;2249602;61;20578;-62
2022/02/09 12:50:51;0.00;0.00;0.62;0.00;0.00;0.62;1.30;0.60;;;21.60;28.50;;;;;;2249327;61;20700;-65
2022/02/09 12:53:37;0.00;0.00;0.62;0.00;0.00;0.62;1.27;0.67;;;21.60;28.50;;;;;;2250004;61;20453;-64
2022/02/09 12:56:26;0.00;0.00;0.62;0.00;0.00;0.62;1.20;0.70;;;21.60;28.50;;;;;;2248785;61;20377;-62
2022/02/09 12:59:14;0.00;0.00;0.62;0.00;0.00;0.62;1.20;0.67;;;21.60;28.50;;;;;;2249496;61;20404;-62
2022/02/09 13:01:59;0.00;0.00;0.62;0.00;0.00;0.62;1.50;0.60;;;21.60;28.50;;;;;;2250170;61;20573;-62
2022/02/09 13:04:45;0.00;0.00;0.62;0.00;0.00;0.62;1.30;0.70;;;21.60;28.50;;;;;;2248776;61;20400;-62
2022/02/09 13:07:29;0.00;0.00;0.62;0.00;0.00;0.62;1.13;0.60;;;21.60;28.50;;;;;;2249539;61;20401;-62
2022/02/09 13:10:21;0.00;0.00;0.62;0.00;0.00;0.62;1.30;0.70;;;21.60;28.50;;;;;;2249590;61;20380;-62
2022/02/09 13:13:23;0.00;0.00;0.62;0.00;0.00;0.62;1.30;0.70;;;21.60;28.40;;;;;;2249389;61;20389;-62
2022/02/09 13:16:19;0.00;0.00;0.62;0.00;0.00;0.62;1.30;0.80;;;21.60;28.40;;;;;;2249968;61;20376;-62
2022/02/09 13:19:38;0.00;0.00;0.62;0.00;0.00;0.62;1.40;0.70;;;21.60;28.40;;;;;;2248591;61;20391;-64
2022/02/09 13:22:56;0.00;0.00;0.62;0.00;0.00;0.62;1.30;0.80;;;21.60;28.40;;;;;;2249645;61;20404;-62
2022/02/09 13:54:05;0.00;0.00;0.62;0.00;0.00;0.62;1.20;0.60;;;21.70;28.40;;;;;;2249715;61;20396;-63
2022/02/09 14:03:02;0.00;0.00;0.62;0.00;0.00;0.62;1.43;0.70;;;21.70;28.40;;;;;;2249010;61;20733;-64
2022/02/09 14:56:55;0.00;0.00;0.62;0.00;0.00;0.62;1.40;0.70;;;21.80;28.30;;;;;;2249521;61;20508;-63
2022/02/09 15:02:40;0.00;0.00;0.62;0.00;0.00;0.62;1.50;0.73;;;21.80;28.30;;;;;;2249368;61;20640;-63
2022/02/09 15:05:53;0.00;0.00;0.62;0.00;0.00;0.62;1.57;0.80;;;21.80;28.30;;;;;;2249653;61;20691;-65
2022/02/09 15:08:48;0.00;0.00;0.62;0.00;0.00;0.62;1.20;0.70;;;21.80;28.30;;;;;;2249829;61;20368;-64
2022/02/09 15:18:31;0.00;0.00;0.62;0.00;0.00;0.62;1.23;0.70;;;21.80;28.30;;;;;;2249147;61;20752;-64
2022/02/09 15:23:48;0.00;0.00;0.62;0.00;0.00;0.62;1.20;0.63;;;21.80;28.30;;;;;;2249515;61;20404;-62
2022/02/09 15:26:34;0.00;0.00;0.62;0.00;0.00;0.62;1.20;0.63;;;21.80;28.30;;;;;;2249661;61;20400;-62
2022/02/09 15:29:20;0.00;0.00;0.62;0.00;0.00;0.62;1.60;1.00;;;21.80;28.30;;;;;;2250022;61;20400;-62
2022/02/09 15:32:12;0.00;0.00;0.62;0.00;0.00;0.62;1.20;0.60;;;21.80;28.30;;;;;;2249224;61;20372;-64
2022/02/09 15:35:02;0.00;0.00;0.62;0.00;0.00;0.62;1.20;0.70;;;21.80;28.20;;;;;;2249274;61;20642;-64
2022/02/09 15:37:53;0.00;0.00;0.62;0.00;0.00;0.62;1.20;0.70;;;21.90;28.30;;;;;;2249522;61;20628;-63
2022/02/09 15:40:50;0.00;0.00;0.62;0.00;0.00;0.62;1.20;0.70;;;21.80;28.20;;;;;;2248936;61;20477;-64
2022/02/09 16:08:52;0.00;0.00;0.62;0.00;0.00;0.62;1.40;0.80;;;21.80;28.20;;;;;;2249384;61;20404;-64
2022/02/09 16:23:47;0.00;0.00;0.62;0.00;0.00;0.62;1.20;0.60;;;21.80;28.10;;;;;;2249019;61;20352;-64
2022/02/09 16:44:18;0.00;0.00;0.62;0.00;0.00;0.62;1.40;0.70;;;21.80;28.20;;;;;;2248992;61;20361;-63
2022/02/09 16:44:49;0.00;0.00;0.62;0.00;0.00;0.62;1.30;0.70;;;21.80;28.10;;;;;;2249490;61;20373;-63
2022/02/09 16:47:57;0.00;0.00;0.62;0.00;0.00;0.62;1.40;0.80;;;21.80;28.10;;;;;;2249573;61;20384;-64
2022/02/09 16:50:49;0.00;0.00;0.62;0.00;0.00;0.62;1.30;0.80;;;21.80;28.10;;;;;;2249974;61;20400;-64
2022/02/09 16:53:45;0.00;0.00;0.62;0.00;0.00;0.62;1.33;0.80;;;21.80;28.10;;;;;;2248825;61;20436;-64
2022/02/09 17:11:15;0.00;0.00;0.62;0.00;0.00;0.62;2.90;2.27;;;21.80;28.30;;;;;;2248752;61;20365;-63
2022/02/09 17:20:38;0.00;0.00;0.62;0.00;0.00;0.62;1.80;1.40;;;21.90;28.50;;;;;;2249705;61;20360;-63
2022/02/09 17:23:23;0.00;0.00;0.62;0.00;0.00;0.62;2.27;1.70;;;21.90;28.50;;;;;;2248097;61;20481;-63
2022/02/09 17:26:12;0.00;0.00;0.62;0.00;0.00;0.62;2.10;1.27;;;21.90;28.50;;;;;;2249426;61;20493;-63
2022/02/09 17:29:02;0.00;0.00;0.62;0.00;0.00;0.62;2.53;1.20;;;21.90;28.50;;;;;;2249417;61;20360;-63
2022/02/09 17:31:57;0.00;0.00;0.62;0.00;0.00;0.62;2.10;1.50;;;21.90;28.50;;;;;;2249274;61;20368;-63
2022/02/09 17:37:45;0.00;0.00;0.62;0.00;0.00;0.62;4.43;1.40;;;21.90;28.50;;;;;;2248821;61;20801;-62
2022/02/09 17:55:56;0.00;0.00;0.62;0.00;0.00;0.62;2.80;1.80;;;21.90;28.60;;;;;;2245504;61;20733;-61
2022/02/09 17:58:50;0.00;0.00;0.62;0.00;0.00;0.62;2.60;1.43;;;21.90;28.60;;;;;;2245534;61;20695;-63
2022/02/09 18:01:35;0.00;0.00;0.62;0.00;0.00;0.62;2.10;1.50;;;21.90;28.70;;;;;;2245541;61;20373;-62
2022/02/09 18:04:22;0.00;0.00;0.62;0.00;0.00;0.62;1.60;1.27;;;21.90;28.70;;;;;;2245704;61;20383;-62
2022/02/09 18:07:12;0.00;0.00;0.62;0.00;0.00;0.62;1.70;1.30;;;21.90;28.70;;;;;;2244766;61;20437;-62
2022/02/09 18:10:12;0.00;0.00;0.62;0.00;0.00;0.62;1.70;1.20;;;22.00;28.70;;;;;;2245302;61;20369;-62
2022/02/09 18:31:15;0.00;0.00;0.62;0.00;0.00;0.62;1.90;1.40;;;22.00;28.80;;;;;;2243360;61;20396;-62
2022/02/09 18:34:19;0.00;0.00;0.62;0.00;0.00;0.62;1.60;1.13;;;22.00;28.80;;;;;;2245284;61;20769;-62
2022/02/09 18:41:20;0.00;0.00;0.62;0.00;0.00;0.62;1.70;1.30;;;22.00;29.30;;;;;;2245227;61;20377;-64
2022/02/09 18:43:28;0.00;0.00;0.62;0.00;0.00;0.62;1.70;1.20;;;22.00;28.80;;;;;;2245271;61;20390;-63
2022/02/09 18:46:27;0.00;0.00;0.62;0.00;0.00;0.62;3.73;1.53;;;22.00;28.80;;;;;;2244837;61;20374;-63
2022/02/09 19:04:28;0.00;0.00;0.62;0.00;0.00;0.62;2.50;1.97;;;22.10;28.90;;;;;;2246314;61;20366;-65
2022/02/09 19:07:32;0.00;0.00;0.62;0.00;0.00;0.62;2.20;1.57;;;22.00;28.90;;;;;;2245250;61;20393;-62
2022/02/09 19:31:36;0.00;0.00;0.62;0.00;0.00;0.62;2.10;1.40;;;22.10;29.00;;;;;;2245960;61;20780;-63
2022/02/09 19:40:52;0.00;0.00;0.62;0.00;0.00;0.62;1.73;1.17;;;22.10;29.00;;;;;;2246182;61;20568;-63
2022/02/09 19:46:45;0.00;0.00;0.62;0.00;0.00;0.62;2.37;1.40;;;22.10;29.00;;;;;;2245660;61;20418;-63
2022/02/09 19:52:55;0.00;0.00;0.62;0.00;0.00;0.62;2.00;1.23;;;22.20;29.10;;;;;;2241844;61;20374;-63
2022/02/09 19:55:41;0.00;0.00;0.62;0.00;0.00;0.62;1.50;1.10;;;22.20;29.10;;;;;;2246015;61;20443;-63
2022/02/09 19:58:38;0.00;0.00;0.62;0.00;0.00;0.62;2.00;1.20;;;22.10;29.00;;;;;;2245154;61;20455;-63
2022/02/09 20:01:27;0.00;0.00;0.62;0.00;0.00;0.62;1.63;1.20;;;22.20;29.10;;;;;;2245848;61;20369;-62
2022/02/09 20:04:14;0.00;0.00;0.62;0.00;0.00;0.62;1.90;1.33;;;22.20;29.10;;;;;;2245957;61;20369;-63
2022/02/09 20:07:00;0.00;0.00;0.62;0.00;0.00;0.62;2.20;1.30;;;22.10;29.00;;;;;;2245437;61;20428;-63
2022/02/09 20:09:45;0.00;0.00;0.62;0.00;0.00;0.62;2.10;1.60;;;22.20;29.10;;;;;;2245698;61;20479;-63
2022/02/09 20:12:29;0.00;0.00;0.62;0.00;0.00;0.62;2.00;1.50;;;22.20;29.10;;;;;;2245342;61;20366;-63
2022/02/09 20:15:17;0.00;0.00;0.62;0.00;0.00;0.62;2.00;1.50;;;22.20;29.10;;;;;;2245665;61;20357;-63
2022/02/09 20:18:01;0.00;0.00;0.62;0.00;0.00;0.62;1.80;1.30;;;22.20;29.10;;;;;;2246081;61;20442;-63
2022/02/09 20:20:46;0.00;0.00;0.62;0.00;0.00;0.62;2.10;1.40;;;22.20;29.10;;;;;;2245018;61;20362;-64
2022/02/09 20:23:34;0.00;0.00;0.62;0.00;0.00;0.62;2.53;1.30;;;22.20;29.10;;;;;;2245695;61;20424;-63
2022/02/09 20:26:20;0.00;0.00;0.62;0.00;0.00;0.62;1.50;1.13;;;22.20;29.10;;;;;;2245892;61;20464;-63
2022/02/09 20:29:09;0.00;0.00;0.62;0.00;0.00;0.62;2.00;1.43;;;22.20;29.10;;;;;;2245339;61;20369;-62
2022/02/09 20:35:04;0.00;0.00;0.62;0.00;0.00;0.62;2.23;1.10;;;22.20;29.10;;;;;;2244793;61;20404;-63
2022/02/09 20:37:52;0.00;0.00;0.62;0.00;0.00;0.62;2.30;1.27;;;22.20;29.10;;;;;;2245623;61;20501;-63
2022/02/09 20:44:16;0.00;0.00;0.62;0.00;0.00;0.62;1.80;1.40;;;22.20;29.10;;;;;;2245152;61;20730;-62
2022/02/09 20:47:01;0.00;0.00;0.62;0.00;0.00;0.62;1.60;1.10;;;22.20;29.10;;;;;;2245458;61;20428;-63
2022/02/09 20:49:45;0.00;0.00;0.62;0.00;0.00;0.62;1.80;1.40;;;22.20;29.10;;;;;;2244952;61;20807;-62
2022/02/09 20:52:30;0.00;0.00;0.62;0.00;0.00;0.62;1.63;1.23;;;22.20;29.10;;;;;;2245645;61;20445;-61
2022/02/09 20:55:15;0.00;0.00;0.62;0.00;0.00;0.62;1.80;1.13;;;22.30;29.20;;;;;;2245704;61;20441;-64
2022/02/09 20:58:01;0.00;0.00;0.62;0.00;0.00;0.62;2.53;1.17;;;22.30;29.20;;;;;;2244939;61;20389;-63
2022/02/09 21:00:58;0.00;0.00;0.62;0.00;0.00;0.62;2.13;1.13;;;22.20;29.70;;;;;;2245590;61;20361;-63
2022/02/09 21:03:54;0.00;0.00;0.62;0.00;0.00;0.62;2.10;1.30;;;22.30;29.20;;;;;;2245732;61;20345;-63
2022/02/09 21:10:16;0.00;0.00;0.62;0.00;0.00;0.62;1.80;1.20;;;22.30;29.20;;;;;;2245836;61;20649;-60
2022/02/09 21:12:53;0.00;0.00;0.62;0.00;0.00;0.62;1.70;1.20;;;22.30;29.20;;;;;;2244962;61;20410;-63
2022/02/09 21:16:06;0.00;0.00;0.62;0.00;0.00;0.62;2.03;1.53;;;22.30;29.20;;;;;;2245456;61;20409;-63
2022/02/09 21:21:56;0.00;0.00;0.62;0.00;0.00;0.62;1.60;1.10;;;22.30;29.20;;;;;;2245325;61;20381;-63
2022/02/09 21:52:12;0.00;0.00;0.62;0.00;0.00;0.62;3.47;1.50;;;22.30;29.50;;;;;;2245408;61;20361;-62
2022/02/09 21:54:56;0.00;0.00;0.62;0.00;0.00;0.62;3.93;2.00;;;22.30;29.40;;;;;;2245560;61;20385;-63
2022/02/09 21:57:57;0.00;0.00;0.62;0.00;0.00;0.62;2.43;1.43;;;22.30;29.40;;;;;;2244886;61;20495;-63
2022/02/09 22:01:29;0.00;0.00;0.62;0.00;0.00;0.62;4.73;1.43;;;22.30;29.50;;;;;;2245293;61;20435;-62
2022/02/09 22:19:20;0.00;0.00;0.62;0.00;0.00;0.62;1.70;1.20;;;22.40;29.70;;;;;;2244571;61;20353;-62
2022/02/09 22:27:47;0.00;0.00;0.62;0.00;0.00;0.62;3.03;1.87;;;22.40;29.60;;;;;;2245712;61;20396;-63
2022/02/09 22:31:16;0.00;0.00;0.62;0.00;0.00;0.62;2.00;1.20;;;22.40;29.60;;;;;;2246313;61;20365;-63
2022/02/09 22:46:30;0.00;0.00;0.62;0.00;0.00;0.62;2.37;1.37;;;22.40;29.60;;;;;;2246125;61;20598;-65
2022/02/09 22:55:14;0.00;0.00;0.62;0.00;0.00;0.62;3.20;1.60;;;22.40;29.60;;;;;;2245572;61;20517;-61
2022/02/09 22:58:03;0.00;0.00;0.62;0.00;0.00;0.62;2.40;1.33;;;22.40;29.60;;;;;;2245843;61;20510;-63
2022/02/09 23:00:57;0.00;0.00;0.62;0.00;0.00;0.62;1.80;1.20;;;22.40;29.60;;;;;;2246342;61;20361;-61
2022/02/09 23:09:58;0.00;0.00;0.62;0.00;0.00;0.62;1.77;1.27;;;22.40;29.60;;;;;;2245880;61;20393;-62
2022/02/09 23:12:55;0.00;0.00;0.62;0.00;0.00;0.62;1.60;1.17;;;22.50;29.70;;;;;;2245642;61;20353;-61
2022/02/09 23:15:55;0.00;0.00;0.62;0.00;0.00;0.62;1.60;1.20;;;22.50;29.70;;;;;;2246150;61;20377;-62
2022/02/09 23:20:03;0.00;0.00;0.62;0.00;0.00;0.62;2.67;1.40;;;22.50;29.70;;;;;;2245304;61;20393;-62
2022/02/09 23:22:54;0.00;0.00;0.62;0.00;0.00;0.62;2.53;1.77;;;22.50;29.80;;;;;;2246024;61;20366;-63
2022/02/09 23:29:31;0.00;0.00;0.62;0.00;0.00;0.62;3.50;2.83;;;22.50;29.70;;;;;;2245952;61;20365;-62
